Airports Germany Stuttgart Airport

Stuttgart Airport (EDDS / STR)

Facts about Stuttgart Airport

Name Stuttgart Airport
City Stuttgart
Country Germany
ICAO code EDDS
IATA code STR
Elevation 388.9248 meters (1276 feet)

Weather

METAR

Metar data retrieved Friday, 19 July 2024 at 23:25 UTC (28 minutes ago)

EDDS 192250Z AUTO 18003KT 090V240 CAVOK 19/17 Q1016

Live traffic

Navigraph Charts (account required)